Time;durP1;ratioP1;P1;durP2;ratioP2;P2;SDS_P1;SDS_P2;PMS_P1;PMS_P2;Temp;Humidity;BMP_temperature;BMP_pressure;BME280_temperature;BME280_humidity;BME280_pressure;Samples;Min_cycle;Max_cycle;Signal;HPM_P1;HPM_P2
2021/07/06 00:00:10;;;;;;;2.20;1.70;;;17.10;99.70;;;;;;5095831;28;20461;-66
2021/07/06 00:02:37;;;;;;;2.90;2.13;;;17.10;99.70;;;;;;5111102;28;20449;-66
2021/07/06 00:05:06;;;;;;;3.73;2.47;;;17.10;99.70;;;;;;5107764;28;20441;-66
2021/07/06 00:07:33;;;;;;;3.70;1.83;;;17.00;99.70;;;;;;5091215;28;20457;-66
2021/07/06 00:10:01;;;;;;;3.57;2.03;;;17.10;99.70;;;;;;5093196;28;20469;-66
2021/07/06 00:12:28;;;;;;;3.90;2.10;;;17.00;99.70;;;;;;5110742;28;20477;-66
2021/07/06 00:14:56;;;;;;;4.27;2.03;;;17.10;99.70;;;;;;5109089;28;20445;-66
2021/07/06 00:17:23;;;;;;;3.40;2.00;;;17.00;99.70;;;;;;5091169;28;20438;-66
2021/07/06 00:19:51;;;;;;;4.60;2.20;;;17.10;99.70;;;;;;5091153;28;20838;-66
2021/07/06 00:22:18;;;;;;;3.07;1.90;;;17.00;99.70;;;;;;5110367;28;20450;-66
2021/07/06 00:24:45;;;;;;;2.87;1.83;;;17.00;99.70;;;;;;5094496;28;20453;-66
2021/07/06 00:27:13;;;;;;;2.83;1.73;;;17.00;99.70;;;;;;5104866;28;20441;-66
2021/07/06 00:29:40;;;;;;;2.73;1.90;;;17.00;99.70;;;;;;5111201;28;20481;-66
2021/07/06 00:32:07;;;;;;;5.73;1.90;;;17.00;99.70;;;;;;5098777;28;20504;-66
2021/07/06 00:34:34;;;;;;;2.87;1.80;;;17.00;99.70;;;;;;5090321;28;20454;-66
2021/07/06 00:37:01;;;;;;;3.10;1.83;;;17.00;99.70;;;;;;5101143;28;20447;-66
2021/07/06 00:39:28;;;;;;;7.90;1.90;;;17.00;99.70;;;;;;5110927;28;20464;-66
2021/07/06 00:41:54;;;;;;;3.40;1.90;;;17.00;99.70;;;;;;5108717;28;20448;-66
2021/07/06 00:44:23;;;;;;;3.57;2.00;;;17.00;99.70;;;;;;5109872;28;20502;-66
2021/07/06 00:46:49;;;;;;;4.23;2.30;;;16.90;99.70;;;;;;5102289;28;20454;-66
2021/07/06 00:49:17;;;;;;;6.30;1.70;;;16.90;99.70;;;;;;5090548;28;20462;-66
2021/07/06 00:51:44;;;;;;;2.53;1.87;;;16.90;99.70;;;;;;5097130;28;20472;-66
2021/07/06 00:54:11;;;;;;;2.30;1.77;;;16.90;99.70;;;;;;5110343;28;20959;-65
2021/07/06 00:56:38;;;;;;;2.77;1.70;;;17.00;99.70;;;;;;5104518;27;20501;-66
2021/07/06 00:59:05;;;;;;;3.00;1.83;;;17.00;99.70;;;;;;5090213;28;20461;-66
2021/07/06 01:01:33;;;;;;;3.30;1.67;;;17.00;99.70;;;;;;5105726;28;20498;-66
2021/07/06 01:04:00;;;;;;;4.23;2.07;;;17.00;99.70;;;;;;5109569;28;20449;-66
2021/07/06 01:06:26;;;;;;;2.73;1.87;;;16.90;99.70;;;;;;5095814;28;20437;-66
2021/07/06 01:08:53;;;;;;;3.77;2.40;;;16.80;99.70;;;;;;5090104;28;20863;-66
2021/07/06 01:11:21;;;;;;;2.40;1.73;;;16.80;99.70;;;;;;5102558;28;20820;-66
2021/07/06 01:13:48;;;;;;;2.53;1.60;;;16.80;99.70;;;;;;5107308;28;20452;-66
2021/07/06 01:16:15;;;;;;;2.00;1.40;;;16.80;99.70;;;;;;5098320;28;20449;-66
2021/07/06 01:18:43;;;;;;;2.50;1.67;;;16.70;99.70;;;;;;5089760;28;20461;-66
2021/07/06 01:21:10;;;;;;;4.73;2.20;;;16.70;99.70;;;;;;5105722;28;20866;-66
2021/07/06 01:23:38;;;;;;;5.17;2.10;;;16.70;99.70;;;;;;5110589;28;20445;-66
2021/07/06 01:26:07;;;;;;;2.60;1.90;;;16.70;99.70;;;;;;5093724;28;20450;-66
2021/07/06 01:28:34;;;;;;;5.37;1.90;;;16.70;99.70;;;;;;5089892;28;20839;-66
2021/07/06 01:31:01;;;;;;;4.00;2.47;;;16.70;99.70;;;;;;5103622;28;20919;-66
2021/07/06 01:33:29;;;;;;;2.57;1.70;;;16.60;99.70;;;;;;5110225;28;20477;-66
2021/07/06 01:36:01;;;;;;;2.13;1.57;;;16.60;99.70;;;;;;5096382;28;20453;-67
2021/07/06 01:38:28;;;;;;;2.67;1.60;;;16.60;99.70;;;;;;5089674;28;21065;-66
2021/07/06 01:40:56;;;;;;;3.00;1.90;;;16.60;99.70;;;;;;5095029;28;20450;-66
2021/07/06 01:43:23;;;;;;;3.60;2.03;;;16.60;99.70;;;;;;5089567;28;20445;-66
2021/07/06 01:45:49;;;;;;;3.10;1.90;;;16.50;99.70;;;;;;5100893;28;20437;-66
2021/07/06 01:48:16;;;;;;;5.17;1.93;;;16.50;99.70;;;;;;5103008;28;20446;-66
2021/07/06 01:50:44;;;;;;;3.80;2.10;;;16.60;99.70;;;;;;5092807;28;20446;-66
2021/07/06 01:53:14;;;;;;;3.20;1.90;;;16.50;99.70;;;;;;5099934;28;21006;-67
2021/07/06 01:55:42;;;;;;;3.47;1.97;;;16.60;99.70;;;;;;5113748;27;20437;-66
2021/07/06 01:58:14;;;;;;;2.70;1.80;;;16.50;99.70;;;;;;5108884;28;20683;-66
2021/07/06 02:00:43;;;;;;;4.03;1.97;;;16.40;99.70;;;;;;5093771;28;20441;-66
2021/07/06 02:03:11;;;;;;;2.80;1.90;;;16.40;99.70;;;;;;5097469;28;20440;-66
2021/07/06 02:05:40;;;;;;;4.23;2.00;;;16.30;99.70;;;;;;5113787;28;20444;-66
2021/07/06 02:08:08;;;;;;;3.67;1.87;;;16.30;99.70;;;;;;5110497;28;21076;-66
2021/07/06 02:10:35;;;;;;;4.20;2.30;;;16.30;99.70;;;;;;5093368;28;20450;-66
2021/07/06 02:13:04;;;;;;;2.70;1.97;;;16.30;99.70;;;;;;5109926;28;20477;-67
2021/07/06 02:15:32;;;;;;;3.90;2.13;;;16.20;99.70;;;;;;5111841;28;20823;-67
2021/07/06 02:17:59;;;;;;;3.57;1.90;;;16.20;99.70;;;;;;5093184;28;20448;-66
2021/07/06 02:20:26;;;;;;;1.90;1.50;;;16.20;99.70;;;;;;5093415;28;20457;-67
2021/07/06 02:22:53;;;;;;;3.00;2.00;;;16.20;99.70;;;;;;5112693;28;20630;-66
2021/07/06 02:25:21;;;;;;;2.87;1.90;;;16.20;99.70;;;;;;5113385;28;20441;-66
2021/07/06 02:27:48;;;;;;;2.87;1.83;;;16.20;99.70;;;;;;5094758;28;20476;-65
2021/07/06 02:30:18;;;;;;;3.10;1.70;;;16.20;99.70;;;;;;5068605;22;20498;-65
2021/07/06 02:32:47;;;;;;;3.50;2.00;;;16.30;99.70;;;;;;5023222;28;20477;-65
2021/07/06 02:35:15;;;;;;;5.93;2.20;;;16.30;99.70;;;;;;5031480;28;20471;-65
2021/07/06 02:37:42;;;;;;;3.33;1.70;;;16.30;99.70;;;;;;5040171;28;20445;-65
2021/07/06 02:40:11;;;;;;;3.50;1.73;;;16.30;99.70;;;;;;5044787;28;20464;-65
2021/07/06 02:42:38;;;;;;;3.17;2.00;;;16.40;99.70;;;;;;5045268;28;20429;-65
2021/07/06 02:45:08;;;;;;;3.40;1.70;;;16.40;99.70;;;;;;5040086;28;20448;-65
2021/07/06 02:47:35;;;;;;;3.90;2.10;;;16.40;99.70;;;;;;5040416;28;20459;-65
2021/07/06 02:50:04;;;;;;;4.17;2.00;;;16.40;99.70;;;;;;5040315;28;20472;-66
2021/07/06 02:52:31;;;;;;;2.30;1.50;;;16.40;99.70;;;;;;5040522;28;20480;-66
2021/07/06 02:54:57;;;;;;;6.20;2.10;;;16.50;99.70;;;;;;5040287;28;20444;-66
2021/07/06 03:00:08;;;;;;;2.37;1.80;;;16.50;99.70;;;;;;5041672;28;20515;-66
2021/07/06 03:02:35;;;;;;;3.87;2.20;;;16.50;99.70;;;;;;5038691;28;20444;-66
2021/07/06 03:05:04;;;;;;;2.90;1.93;;;16.40;99.70;;;;;;5039678;28;20498;-64
2021/07/06 03:07:31;;;;;;;3.20;2.00;;;16.50;99.70;;;;;;5039568;28;20440;-66
2021/07/06 03:09:57;;;;;;;3.37;1.83;;;16.40;99.70;;;;;;5041049;28;20476;-65
2021/07/06 03:12:24;;;;;;;3.50;2.10;;;16.40;99.70;;;;;;5059827;28;20468;-64
2021/07/06 03:14:51;;;;;;;3.40;2.10;;;16.40;99.70;;;;;;5054522;28;20452;-64
2021/07/06 03:17:18;;;;;;;5.37;2.33;;;16.40;99.70;;;;;;5040083;28;20471;-66
2021/07/06 03:19:44;;;;;;;5.60;2.80;;;16.30;99.70;;;;;;5039505;28;20967;-64
2021/07/06 03:22:12;;;;;;;3.40;2.17;;;16.20;99.70;;;;;;5039968;28;20659;-66
2021/07/06 03:24:39;;;;;;;3.50;2.20;;;16.30;99.70;;;;;;5037967;28;20452;-63
2021/07/06 03:27:06;;;;;;;3.30;2.20;;;16.20;99.70;;;;;;5040286;28;20468;-65
2021/07/06 03:29:33;;;;;;;4.30;2.20;;;16.20;99.70;;;;;;5040161;28;20468;-64
2021/07/06 03:32:00;;;;;;;2.97;2.10;;;16.20;99.70;;;;;;5039574;28;20449;-65
2021/07/06 03:34:26;;;;;;;4.10;1.87;;;16.10;99.70;;;;;;5038676;28;20448;-66
2021/07/06 03:36:53;;;;;;;2.83;1.80;;;16.10;99.70;;;;;;5039326;28;20456;-65
2021/07/06 03:39:21;;;;;;;5.93;2.20;;;16.10;99.70;;;;;;5039589;28;20468;-66
2021/07/06 03:41:48;;;;;;;3.00;1.77;;;16.10;99.70;;;;;;5039059;28;20854;-66
2021/07/06 03:44:15;;;;;;;3.30;2.20;;;16.10;99.70;;;;;;5039492;28;20472;-65
2021/07/06 03:46:41;;;;;;;2.90;2.00;;;16.20;99.70;;;;;;5040254;28;20445;-65
2021/07/06 03:49:08;;;;;;;3.27;2.00;;;16.20;99.70;;;;;;5039717;28;20802;-63
2021/07/06 03:51:35;;;;;;;4.20;2.20;;;16.30;99.70;;;;;;5053792;28;20545;-66
2021/07/06 03:54:01;;;;;;;3.90;1.87;;;16.40;99.70;;;;;;5047533;28;20480;-64
2021/07/06 03:56:29;;;;;;;4.20;2.00;;;16.30;99.70;;;;;;5040596;28;20459;-65
2021/07/06 03:58:56;;;;;;;3.87;2.00;;;16.20;99.70;;;;;;5039545;28;20467;-65
2021/07/06 04:01:23;;;;;;;4.70;2.10;;;16.20;99.70;;;;;;5037798;28;20506;-65
2021/07/06 04:03:49;;;;;;;4.27;2.10;;;16.20;99.70;;;;;;5032849;28;20503;-63
2021/07/06 04:06:16;;;;;;;3.50;1.83;;;16.20;99.70;;;;;;5032783;28;20448;-63
2021/07/06 04:08:42;;;;;;;4.27;2.10;;;16.20;99.70;;;;;;5030738;28;20600;-62
2021/07/06 04:11:09;;;;;;;4.30;2.50;;;16.30;99.70;;;;;;5032578;28;20510;-64
2021/07/06 04:13:37;;;;;;;3.20;1.93;;;16.30;99.70;;;;;;5040648;28;20481;-64
2021/07/06 04:16:04;;;;;;;4.40;2.70;;;16.40;99.70;;;;;;5032743;28;20948;-63
2021/07/06 04:18:31;;;;;;;3.37;1.90;;;16.40;99.70;;;;;;5032561;28;20449;-63
2021/07/06 04:20:58;;;;;;;5.00;2.10;;;16.40;99.70;;;;;;5032456;28;20498;-63
2021/07/06 04:23:24;;;;;;;4.37;2.37;;;16.40;99.70;;;;;;5032447;28;20449;-64
2021/07/06 04:25:51;;;;;;;3.87;2.33;;;16.40;99.70;;;;;;5032113;28;20452;-65
2021/07/06 04:28:18;;;;;;;3.10;1.90;;;16.50;99.70;;;;;;5032131;28;20475;-64
2021/07/06 04:30:46;;;;;;;4.57;2.60;;;16.50;99.70;;;;;;5032162;28;20472;-64
2021/07/06 04:33:12;;;;;;;5.80;2.03;;;16.50;99.70;;;;;;5031893;28;20487;-64
2021/07/06 04:35:39;;;;;;;4.53;2.60;;;16.60;99.70;;;;;;5031949;28;20441;-64
2021/07/06 04:38:06;;;;;;;4.00;2.20;;;16.70;99.70;;;;;;5030622;28;20464;-63
2021/07/06 04:40:32;;;;;;;3.43;2.00;;;16.80;99.70;;;;;;5029824;28;20473;-64
2021/07/06 04:43:00;;;;;;;2.60;1.83;;;16.90;99.70;;;;;;5027856;28;20823;-63
2021/07/06 04:45:27;;;;;;;3.70;2.17;;;16.90;99.70;;;;;;5031976;28;20459;-62
2021/07/06 04:47:55;;;;;;;3.20;2.00;;;17.00;99.70;;;;;;5030585;28;20441;-64
2021/07/06 04:50:22;;;;;;;3.17;1.80;;;17.10;99.70;;;;;;5030480;28;20465;-65
2021/07/06 04:52:49;;;;;;;2.70;2.00;;;17.20;99.70;;;;;;5034469;28;20484;-63
2021/07/06 04:55:17;;;;;;;2.87;1.90;;;17.30;99.70;;;;;;5027314;28;20433;-64
2021/07/06 04:57:44;;;;;;;2.00;1.67;;;17.30;99.70;;;;;;5031607;28;20455;-64
2021/07/06 05:00:12;;;;;;;2.57;1.97;;;17.50;99.70;;;;;;5031118;28;20564;-64
2021/07/06 05:02:40;;;;;;;2.30;1.80;;;17.70;99.70;;;;;;5032074;28;20449;-64
2021/07/06 05:05:09;;;;;;;2.60;1.87;;;17.70;99.70;;;;;;5035234;28;20445;-63
2021/07/06 05:07:36;;;;;;;4.37;1.70;;;17.80;99.70;;;;;;5032677;28;20961;-64
2021/07/06 05:10:05;;;;;;;2.70;1.50;;;17.90;99.70;;;;;;5033847;28;20472;-64
2021/07/06 05:12:32;;;;;;;3.00;1.50;;;18.00;99.70;;;;;;5032008;28;20441;-64
2021/07/06 05:14:58;;;;;;;2.77;1.60;;;18.10;99.70;;;;;;5029782;28;20479;-64
2021/07/06 05:17:25;;;;;;;2.30;1.57;;;18.20;99.70;;;;;;5033496;28;20440;-64
2021/07/06 05:19:52;;;;;;;2.20;1.80;;;18.30;99.70;;;;;;5032623;28;20991;-64
2021/07/06 05:22:21;;;;;;;2.10;1.70;;;18.20;99.70;;;;;;5030732;28;20452;-65
2021/07/06 05:24:48;;;;;;;2.80;1.83;;;18.20;99.70;;;;;;5034552;28;20452;-64
2021/07/06 05:27:15;;;;;;;2.67;1.90;;;18.10;99.70;;;;;;5032627;28;20449;-64
2021/07/06 05:29:41;;;;;;;2.80;1.80;;;18.00;99.70;;;;;;5022844;28;20507;-65
2021/07/06 05:32:08;;;;;;;1.97;1.60;;;17.90;99.70;;;;;;5036856;28;20448;-64
2021/07/06 05:34:35;;;;;;;3.00;1.70;;;17.90;99.70;;;;;;5036240;28;20472;-64
2021/07/06 05:37:02;;;;;;;3.30;2.00;;;17.90;99.70;;;;;;5037203;28;20448;-64
2021/07/06 05:39:30;;;;;;;2.93;1.60;;;18.10;99.70;;;;;;5037526;28;20476;-64
2021/07/06 05:41:58;;;;;;;3.00;1.80;;;18.30;99.70;;;;;;5036663;28;20476;-64
2021/07/06 05:44:25;;;;;;;3.37;1.73;;;18.30;99.70;;;;;;5036006;28;20444;-64
2021/07/06 05:46:52;;;;;;;3.53;2.00;;;18.40;99.70;;;;;;5038235;28;20829;-63
2021/07/06 05:49:18;;;;;;;4.30;1.90;;;18.30;99.70;;;;;;5037181;28;20472;-64
2021/07/06 05:51:45;;;;;;;2.40;1.80;;;18.50;99.70;;;;;;5036730;28;20455;-64
2021/07/06 05:54:12;;;;;;;1.87;1.40;;;18.80;99.70;;;;;;5036796;28;20549;-63
2021/07/06 05:56:40;;;;;;;2.17;1.60;;;19.10;99.70;;;;;;5022124;28;20453;-65
2021/07/06 05:59:06;;;;;;;2.57;1.67;;;19.20;99.70;;;;;;5030140;28;20468;-65
2021/07/06 06:01:34;;;;;;;2.70;1.70;;;19.10;99.70;;;;;;5025456;28;20445;-65
2021/07/06 06:04:01;;;;;;;1.90;1.70;;;19.20;99.70;;;;;;5029426;28;20555;-64
2021/07/06 06:06:28;;;;;;;2.30;1.70;;;19.50;99.70;;;;;;5025525;28;20456;-64
2021/07/06 06:08:55;;;;;;;2.23;1.70;;;19.40;99.70;;;;;;5019342;28;20460;-64
2021/07/06 06:11:22;;;;;;;2.20;1.63;;;19.50;99.70;;;;;;5017092;28;20467;-64
2021/07/06 06:13:50;;;;;;;4.10;1.80;;;19.70;99.70;;;;;;5016535;28;20480;-64
2021/07/06 06:16:16;;;;;;;3.33;2.00;;;19.70;99.70;;;;;;5016446;28;20460;-65
2021/07/06 06:18:43;;;;;;;2.73;1.83;;;19.70;99.70;;;;;;5016703;28;20449;-63
2021/07/06 06:21:10;;;;;;;2.53;1.70;;;19.70;99.70;;;;;;5021707;28;20459;-64
2021/07/06 06:23:36;;;;;;;2.73;1.90;;;19.90;99.70;;;;;;5035025;28;20449;-64
2021/07/06 06:26:03;;;;;;;3.33;1.50;;;20.20;99.70;;;;;;5035895;28;20506;-64
2021/07/06 06:28:30;;;;;;;2.83;1.70;;;20.80;99.70;;;;;;5034541;28;20459;-64
2021/07/06 06:30:58;;;;;;;2.17;1.67;;;21.30;99.70;;;;;;5036152;28;20460;-64
2021/07/06 06:33:25;;;;;;;1.70;1.43;;;21.80;99.70;;;;;;5036500;28;20484;-65
2021/07/06 06:35:52;;;;;;;2.47;1.60;;;22.70;99.70;;;;;;5034211;28;20440;-65
2021/07/06 06:38:19;;;;;;;2.20;1.80;;;23.30;99.70;;;;;;5035911;28;20452;-65
2021/07/06 06:40:45;;;;;;;2.30;1.70;;;23.50;99.70;;;;;;5036626;28;20221;-65
2021/07/06 06:43:12;;;;;;;2.00;1.80;;;24.30;99.70;;;;;;5035568;28;20276;-66
2021/07/06 06:45:38;;;;;;;2.28;1.70;;;24.20;99.70;;;;;;5035946;28;20208;-63
2021/07/06 06:48:07;;;;;;;1.88;1.50;;;25.10;99.70;;;;;;5036322;28;20201;-63
2021/07/06 06:50:33;;;;;;;2.63;1.67;;;25.00;99.70;;;;;;5035814;28;20292;-63
2021/07/06 06:53:00;;;;;;;1.90;1.50;;;25.10;99.70;;;;;;5035590;28;20212;-63
2021/07/06 06:55:27;;;;;;;2.38;1.60;;;25.00;99.70;;;;;;5035634;28;20217;-63
2021/07/06 06:57:53;;;;;;;3.03;1.67;;;24.90;99.70;;;;;;5035897;28;20208;-63
2021/07/06 07:00:20;;;;;;;2.00;1.50;;;25.40;99.70;;;;;;5034453;28;20431;-63
2021/07/06 07:02:49;;;;;;;1.80;1.50;;;25.70;99.70;;;;;;5034691;28;20336;-63
2021/07/06 07:05:17;;;;;;;2.00;1.40;;;26.30;99.70;;;;;;5034984;28;20197;-65
2021/07/06 07:07:44;;;;;;;2.70;1.50;;;27.00;98.40;;;;;;5040321;28;20209;-65
2021/07/06 07:10:11;;;;;;;2.05;1.60;;;27.60;96.00;;;;;;5040292;28;20715;-64
2021/07/06 07:12:39;;;;;;;2.20;1.77;;;27.20;97.30;;;;;;5041135;28;20237;-65
2021/07/06 07:15:07;;;;;;;1.90;1.70;;;27.00;97.30;;;;;;5039958;28;20221;-64
2021/07/06 07:17:34;;;;;;;2.13;1.60;;;26.20;99.70;;;;;;5040337;28;20676;-64
2021/07/06 07:20:01;;;;;;;2.22;1.65;;;26.30;99.70;;;;;;5041152;28;20223;-64
2021/07/06 07:22:29;;;;;;;2.33;1.70;;;26.20;99.70;;;;;;5029196;28;20206;-63
2021/07/06 07:24:56;;;;;;;2.20;1.73;;;25.20;99.70;;;;;;5032195;28;20197;-63
2021/07/06 07:27:22;;;;;;;1.95;1.50;;;25.00;99.70;;;;;;5017303;28;20194;-63
2021/07/06 07:29:49;;;;;;;1.92;1.45;;;24.50;99.70;;;;;;5027610;28;20241;-62
2021/07/06 07:32:16;;;;;;;2.17;1.70;;;24.60;99.70;;;;;;5025490;28;20202;-62
2021/07/06 07:34:43;;;;;;;2.33;1.60;;;24.50;99.70;;;;;;5033598;28;20239;-62
2021/07/06 07:37:10;;;;;;;1.90;1.70;;;24.50;99.70;;;;;;5034976;28;20231;-63
2021/07/06 07:39:38;;;;;;;2.07;1.67;;;24.40;99.70;;;;;;5035424;28;20258;-62
2021/07/06 07:42:05;;;;;;;2.17;1.47;;;24.30;99.70;;;;;;5035148;28;20495;-64
2021/07/06 07:44:32;;;;;;;2.13;1.70;;;24.30;99.70;;;;;;5034911;28;20569;-63
2021/07/06 07:46:59;;;;;;;2.10;1.50;;;24.30;99.70;;;;;;5035349;28;20444;-63
2021/07/06 07:49:26;;;;;;;1.80;1.50;;;24.40;99.70;;;;;;5035825;28;20471;-64
2021/07/06 07:51:53;;;;;;;2.40;1.40;;;24.30;99.70;;;;;;5035698;28;20477;-65
2021/07/06 07:54:19;;;;;;;2.07;1.47;;;24.30;99.70;;;;;;5034467;28;20483;-64
2021/07/06 07:56:48;;;;;;;1.80;1.30;;;24.30;99.70;;;;;;5035415;28;20452;-61
2021/07/06 07:59:14;;;;;;;2.57;1.60;;;24.50;99.70;;;;;;5035173;28;20487;-64
2021/07/06 08:01:41;;;;;;;1.87;1.40;;;24.20;99.70;;;;;;5034218;28;20803;-64
2021/07/06 08:04:08;;;;;;;1.77;1.43;;;24.30;99.70;;;;;;5034875;28;20447;-58
2021/07/06 08:06:34;;;;;;;2.53;1.37;;;24.50;99.70;;;;;;5032451;28;20459;-62
2021/07/06 08:09:01;;;;;;;4.27;1.60;;;24.30;99.70;;;;;;5024408;28;20855;-64
2021/07/06 08:11:28;;;;;;;3.10;1.80;;;24.20;99.70;;;;;;5015088;28;20449;-66
2021/07/06 08:13:56;;;;;;;2.03;1.43;;;24.40;99.70;;;;;;5025741;28;20478;-64
2021/07/06 08:16:23;;;;;;;2.40;1.50;;;24.30;99.70;;;;;;5025276;28;20455;-65
2021/07/06 08:18:49;;;;;;;2.50;1.43;;;24.20;99.70;;;;;;5029132;28;20475;-64
2021/07/06 08:21:16;;;;;;;2.50;1.67;;;24.40;99.70;;;;;;5026364;28;20841;-64
2021/07/06 08:23:43;;;;;;;1.70;1.30;;;24.40;99.70;;;;;;5021098;28;20449;-63
2021/07/06 08:26:09;;;;;;;2.00;1.30;;;24.40;99.70;;;;;;5035081;28;20466;-64
2021/07/06 08:28:36;;;;;;;2.77;1.63;;;24.30;99.70;;;;;;5017917;28;20453;-65
2021/07/06 08:33:33;;;;;;;2.40;1.63;;;24.40;99.70;;;;;;5093890;22;20755;-66
2021/07/06 08:36:00;;;;;;;2.10;1.50;;;24.20;99.70;;;;;;5041907;28;20451;-66
2021/07/06 08:38:27;;;;;;;2.17;1.57;;;24.30;99.70;;;;;;5041004;28;20455;-66
2021/07/06 08:40:53;;;;;;;2.30;1.57;;;24.20;99.70;;;;;;5036459;28;20455;-66
2021/07/06 08:43:20;;;;;;;1.90;1.50;;;24.40;99.70;;;;;;5042476;28;20474;-66
2021/07/06 08:45:47;;;;;;;2.23;1.40;;;24.50;99.70;;;;;;5040776;28;20444;-66
2021/07/06 08:48:15;;;;;;;1.90;1.47;;;24.40;99.70;;;;;;5038492;28;20448;-66
2021/07/06 08:50:45;;;;;;;2.30;1.43;;;24.50;99.70;;;;;;5030322;28;20955;-66
2021/07/06 08:53:12;;;;;;;2.00;1.50;;;24.60;99.70;;;;;;5030284;28;20499;-66
2021/07/06 08:55:39;;;;;;;2.23;1.80;;;24.70;99.70;;;;;;5029844;28;20483;-66
2021/07/06 08:58:05;;;;;;;1.83;1.27;;;24.70;99.70;;;;;;5030033;28;20807;-66
2021/07/06 09:00:33;;;;;;;2.40;1.60;;;24.90;99.70;;;;;;5030232;28;20452;-66
2021/07/06 09:03:01;;;;;;;1.93;1.50;;;25.00;99.70;;;;;;5030699;28;20517;-65
2021/07/06 09:05:30;;;;;;;3.50;1.73;;;25.10;99.70;;;;;;5040692;28;20835;-67
2021/07/06 09:07:59;;;;;;;2.50;1.70;;;24.70;99.70;;;;;;5038435;28;20443;-66
2021/07/06 09:10:28;;;;;;;2.07;1.60;;;24.80;99.70;;;;;;5049693;28;20440;-66
2021/07/06 09:12:55;;;;;;;2.37;1.53;;;25.00;99.70;;;;;;5048199;28;20485;-65
2021/07/06 09:15:24;;;;;;;2.00;1.50;;;25.10;99.70;;;;;;5046503;28;20490;-65
2021/07/06 09:18:12;;;;;;;1.50;1.20;;;25.10;99.70;;;;;;5050089;28;20945;-65
2021/07/06 09:20:41;;;;;;;2.53;1.70;;;25.10;99.70;;;;;;5049570;28;20541;-65
2021/07/06 09:23:24;;;;;;;2.20;1.50;;;25.20;99.70;;;;;;5049825;28;20862;-65
2021/07/06 09:26:12;;;;;;;2.80;1.50;;;24.90;99.70;;;;;;5041579;28;20451;-66
2021/07/06 09:28:40;;;;;;;2.00;1.50;;;24.60;99.70;;;;;;5032343;28;20435;-66
2021/07/06 09:31:28;;;;;;;2.83;1.47;;;24.50;99.70;;;;;;5029727;28;20451;-65
2021/07/06 09:33:58;;;;;;;2.43;1.53;;;24.20;99.70;;;;;;5029844;28;20531;-65
2021/07/06 09:36:33;;;;;;;1.70;1.40;;;23.90;99.70;;;;;;5029444;28;20471;-65
2021/07/06 09:39:15;;;;;;;1.70;1.40;;;24.00;99.70;;;;;;5029873;28;20451;-66
2021/07/06 09:41:45;;;;;;;2.10;1.60;;;23.80;99.70;;;;;;5029625;28;20820;-66
2021/07/06 09:44:23;;;;;;;1.90;1.50;;;23.80;99.70;;;;;;5029475;28;20445;-65
2021/07/06 09:46:57;;;;;;;4.20;2.13;;;23.10;99.70;;;;;;5029605;28;20940;-65
2021/07/06 09:49:26;;;;;;;2.53;1.77;;;22.60;99.70;;;;;;5029733;28;20440;-66
2021/07/06 09:51:54;;;;;;;3.60;1.80;;;22.40;99.70;;;;;;5029421;28;20468;-66
2021/07/06 09:54:32;;;;;;;2.80;1.70;;;22.20;99.70;;;;;;5029298;28;20579;-65
2021/07/06 09:57:05;;;;;;;6.30;1.80;;;22.10;99.70;;;;;;5029740;28;20535;-65
2021/07/06 09:59:32;;;;;;;2.30;1.50;;;22.10;99.70;;;;;;5029571;28;20454;-66
2021/07/06 10:02:03;;;;;;;2.20;1.50;;;22.10;99.70;;;;;;5029669;28;20461;-65
2021/07/06 10:04:30;;;;;;;3.10;1.53;;;22.10;99.70;;;;;;5029188;28;20456;-66
2021/07/06 10:06:58;;;;;;;2.13;1.20;;;22.30;99.70;;;;;;5029693;28;20551;-66
2021/07/06 10:09:27;;;;;;;2.80;1.30;;;22.70;99.70;;;;;;5029396;28;20448;-66
2021/07/06 10:11:55;;;;;;;1.50;1.20;;;23.30;99.70;;;;;;5031904;28;20464;-66
2021/07/06 10:14:22;;;;;;;1.53;1.10;;;23.80;99.70;;;;;;5046262;28;20463;-66
2021/07/06 10:16:49;;;;;;;1.60;1.20;;;24.10;99.70;;;;;;5053298;28;20451;-66
2021/07/06 10:19:16;;;;;;;1.60;1.20;;;24.10;99.70;;;;;;5052885;28;20446;-66
2021/07/06 10:21:43;;;;;;;1.60;1.30;;;23.80;99.70;;;;;;5053138;28;20467;-66
2021/07/06 10:24:09;;;;;;;1.30;1.10;;;23.60;99.70;;;;;;5052592;28;20447;-65
2021/07/06 10:26:40;;;;;;;1.47;1.13;;;23.40;99.70;;;;;;5052944;28;20450;-66
2021/07/06 10:29:07;;;;;;;1.50;1.20;;;23.50;99.70;;;;;;5052374;28;21020;-66
2021/07/06 10:31:42;;;;;;;1.40;1.10;;;23.50;99.70;;;;;;5052611;28;20503;-66
2021/07/06 10:34:20;;;;;;;1.60;1.10;;;23.60;99.70;;;;;;5052208;28;20443;-64
2021/07/06 10:36:47;;;;;;;1.77;1.30;;;23.60;99.70;;;;;;5050648;28;20998;-66
2021/07/06 10:39:15;;;;;;;1.30;1.00;;;23.50;99.70;;;;;;5052984;28;20443;-66
2021/07/06 10:41:59;;;;;;;1.60;1.30;;;23.40;99.70;;;;;;5052527;28;20525;-67
2021/07/06 10:44:34;;;;;;;1.70;1.30;;;23.20;99.70;;;;;;5052479;28;20534;-66
2021/07/06 10:47:01;;;;;;;1.90;1.20;;;23.10;99.70;;;;;;5052427;28;20503;-66
2021/07/06 10:49:32;;;;;;;1.30;1.10;;;23.00;99.70;;;;;;5052516;28;20452;-66
2021/07/06 10:52:01;;;;;;;1.60;1.30;;;23.10;99.70;;;;;;5052093;28;20841;-66
2021/07/06 10:54:30;;;;;;;1.40;1.13;;;23.00;99.70;;;;;;5051926;28;20454;-66
2021/07/06 10:57:12;;;;;;;1.83;1.30;;;22.90;99.70;;;;;;5052079;28;20466;-66
2021/07/06 10:59:39;;;;;;;1.83;1.37;;;22.80;99.70;;;;;;5052286;28;20451;-66
2021/07/06 11:02:07;;;;;;;1.97;1.30;;;22.70;99.70;;;;;;5052216;28;20472;-67
2021/07/06 11:05:10;;;;;;;1.93;1.40;;;22.60;99.70;;;;;;5051938;28;20823;-66
2021/07/06 11:07:51;;;;;;;1.80;1.30;;;22.60;99.70;;;;;;5048455;28;20942;-66
2021/07/06 11:10:20;;;;;;;1.77;1.30;;;22.80;99.70;;;;;;5040957;28;20935;-66
2021/07/06 11:12:50;;;;;;;1.40;1.10;;;22.80;99.70;;;;;;5031563;28;20472;-67
2021/07/06 11:15:25;;;;;;;2.03;1.30;;;22.90;99.70;;;;;;5031352;28;20495;-66
2021/07/06 11:18:00;;;;;;;3.10;2.13;;;23.00;99.70;;;;;;5032096;28;20440;-66
2021/07/06 11:20:33;;;;;;;1.70;1.30;;;22.80;99.70;;;;;;5032004;28;20544;-66
2021/07/06 11:23:00;;;;;;;1.40;1.20;;;22.80;99.70;;;;;;5031420;28;20536;-66
2021/07/06 11:25:30;;;;;;;1.73;1.23;;;22.80;99.70;;;;;;5031580;28;20972;-66
2021/07/06 11:28:00;;;;;;;1.60;1.10;;;22.90;99.70;;;;;;5033780;28;20452;-66
2021/07/06 11:30:29;;;;;;;1.90;1.27;;;22.90;99.70;;;;;;5042315;28;20462;-66
2021/07/06 11:33:15;;;;;;;2.03;1.40;;;23.00;99.70;;;;;;5039293;28;20477;-66
2021/07/06 11:35:44;;;;;;;2.17;1.40;;;23.00;99.70;;;;;;5031267;28;20521;-66
2021/07/06 11:38:13;;;;;;;2.17;1.20;;;23.20;99.70;;;;;;5031210;28;20452;-66
2021/07/06 11:40:42;;;;;;;2.47;1.33;;;23.30;99.70;;;;;;5031390;28;20448;-66
2021/07/06 11:43:11;;;;;;;2.17;1.50;;;23.40;99.70;;;;;;5031341;28;20483;-67
2021/07/06 11:45:38;;;;;;;1.43;1.20;;;23.30;99.70;;;;;;5031294;28;20452;-66
2021/07/06 11:48:11;;;;;;;1.87;1.33;;;23.10;99.70;;;;;;5035460;28;20448;-66
2021/07/06 11:50:39;;;;;;;1.87;1.30;;;22.90;99.70;;;;;;5043084;28;20456;-66
2021/07/06 11:53:06;;;;;;;2.10;1.40;;;22.90;99.70;;;;;;5040747;28;20477;-66
2021/07/06 11:55:34;;;;;;;1.80;1.30;;;22.90;99.70;;;;;;5041703;28;20907;-65
2021/07/06 11:58:02;;;;;;;2.00;1.30;;;22.70;99.70;;;;;;5041277;28;20447;-66
2021/07/06 12:00:34;;;;;;;1.73;1.20;;;22.80;99.70;;;;;;5045868;28;20538;-66
2021/07/06 12:03:25;;;;;;;2.07;1.30;;;22.70;99.70;;;;;;5042335;28;20550;-66
2021/07/06 12:05:54;;;;;;;1.90;1.33;;;22.70;99.70;;;;;;5031549;28;20449;-65
2021/07/06 12:08:22;;;;;;;1.40;1.10;;;22.80;99.70;;;;;;5047910;28;20455;-66
2021/07/06 12:11:03;;;;;;;1.80;1.30;;;22.90;99.70;;;;;;5047672;28;20448;-66
2021/07/06 12:13:31;;;;;;;1.93;1.30;;;23.00;99.70;;;;;;5037606;28;20482;-66
2021/07/06 12:16:03;;;;;;;1.93;1.33;;;23.10;99.70;;;;;;5042726;28;20494;-66
2021/07/06 12:18:31;;;;;;;2.13;1.40;;;23.10;99.70;;;;;;5036035;28;21012;-66
2021/07/06 12:21:00;;;;;;;2.10;1.30;;;23.10;99.70;;;;;;5029997;28;20488;-66
2021/07/06 12:23:27;;;;;;;2.90;1.20;;;23.20;99.70;;;;;;5031159;28;20468;-65
2021/07/06 12:25:56;;;;;;;1.80;1.30;;;23.30;99.70;;;;;;5047526;28;20455;-65
2021/07/06 12:28:24;;;;;;;1.43;1.17;;;23.10;99.70;;;;;;5050800;28;20455;-66
2021/07/06 12:31:21;;;;;;;1.30;1.10;;;23.20;99.70;;;;;;5050318;28;20938;-66
2021/07/06 12:34:06;;;;;;;1.57;1.40;;;23.10;99.70;;;;;;5049855;28;21046;-66
2021/07/06 12:36:36;;;;;;;1.40;1.20;;;22.90;99.70;;;;;;5050367;28;20479;-66
2021/07/06 12:39:17;;;;;;;3.70;1.20;;;22.80;99.70;;;;;;5050433;28;20444;-66
2021/07/06 12:41:46;;;;;;;1.90;1.30;;;22.60;99.70;;;;;;5050051;28;20459;-66
2021/07/06 12:44:12;;;;;;;1.50;1.20;;;22.60;99.70;;;;;;5049968;28;20444;-66
2021/07/06 12:46:40;;;;;;;2.17;1.50;;;22.60;99.70;;;;;;5050059;28;20921;-66
2021/07/06 12:49:07;;;;;;;1.60;1.10;;;22.60;99.70;;;;;;5050187;28;20439;-65
2021/07/06 12:51:34;;;;;;;1.80;1.23;;;22.50;99.70;;;;;;5049840;28;20467;-66
2021/07/06 12:54:03;;;;;;;2.50;1.27;;;22.40;99.70;;;;;;5049927;28;20452;-65
2021/07/06 12:56:31;;;;;;;1.30;1.00;;;22.40;99.70;;;;;;5049641;28;20498;-66
2021/07/06 12:59:25;;;;;;;1.77;1.10;;;22.50;99.70;;;;;;5049962;28;20448;-66